Terminal Aerodrome Forecast
Issued by NWS

Home | Current Version | Previous Version | Text Only | Print | Product List | Glossary On
Versions: 1 2 3 4 5 6 7 8 9 10 11 12 13 14 15 16
000
FTUS43 KDDC 221120
TAFHYS
TAF
KHYS 221120Z 2212/2312 18010KT P6SM FEW200
     FM221500 18018G28KT P6SM SKC
     FM230100 15013KT P6SM SKC=

USA.gov is the U.S. government's official web portal to all federal, state and local government web resources and services.